Time;durP1;ratioP1;P1;durP2;ratioP2;P2;SDS_P1;SDS_P2;PMS_P1;PMS_P2;Temp;Humidity;BMP_temperature;BMP_pressure;BME280_temperature;BME280_humidity;BME280_pressure;Samples;Min_cycle;Max_cycle;Signal;HPM_P1;HPM_P2
2021/05/03 00:00:21;;;;;;;10.90;8.68;;;;;;;15.57;76.12;99140.27;1677621;84;21720;-87
2021/05/03 00:02:48;;;;;;;9.68;8.75;;;;;;;15.45;75.85;99118.66;1667601;84;21640;-87
2021/05/03 00:05:25;;;;;;;11.38;9.93;;;;;;;15.52;76.10;99137.55;1671350;84;21236;-88
2021/05/03 00:07:53;;;;;;;11.28;8.73;;;;;;;15.52;76.10;99137.55;1670609;84;21336;-85
2021/05/03 00:10:21;;;;;;;9.85;8.85;;;;;;;15.55;75.97;99135.68;1668459;84;21233;-87
2021/05/03 00:12:48;;;;;;;11.28;10.25;;;;;;;15.61;75.83;99141.13;1663248;84;21129;-88
2021/05/03 00:15:17;;;;;;;12.95;10.10;;;;;;;15.63;75.68;99137.11;1655887;84;21234;-85
2021/05/03 00:17:45;;;;;;;11.97;10.68;;;;;;;15.60;75.64;99143.00;1659306;84;21258;-88
2021/05/03 00:20:13;;;;;;;12.98;9.98;;;;;;;15.54;75.67;99142.67;1679333;84;21664;-86
2021/05/03 00:22:40;;;;;;;9.63;7.87;;;;;;;15.54;75.72;99142.13;1645488;84;22167;-87
2021/05/03 00:25:10;;;;;;;9.30;8.13;;;;;;;15.63;75.64;99151.89;1654829;84;21344;-87
2021/05/03 00:27:38;;;;;;;11.03;9.18;;;;;;;15.70;75.43;99147.14;1659933;84;21191;-87
2021/05/03 00:30:07;;;;;;;13.28;9.60;;;;;;;15.71;75.36;99149.32;1662737;84;21201;-87
2021/05/03 00:32:34;;;;;;;13.83;10.10;;;;;;;15.69;75.39;99143.36;1670244;84;21236;-89
2021/05/03 00:35:01;;;;;;;16.70;12.85;;;;;;;15.70;75.31;99143.65;1667307;84;21555;-88
2021/05/03 00:37:28;;;;;;;9.40;8.58;;;;;;;15.70;75.31;99143.65;1664556;84;21646;-87
2021/05/03 00:39:55;;;;;;;10.18;8.18;;;;;;;15.76;74.84;99144.84;1666558;84;21385;-89
2021/05/03 00:42:22;;;;;;;11.33;7.87;;;;;;;15.78;74.63;99145.11;1653048;84;21339;-89
2021/05/03 00:44:51;;;;;;;11.43;7.78;;;;;;;15.77;74.47;99153.70;1672055;84;21012;-87
2021/05/03 00:47:19;;;;;;;18.12;13.45;;;;;;;15.72;74.48;99159.79;1679505;84;21320;-89
2021/05/03 00:49:47;;;;;;;8.98;7.95;;;;;;;15.68;74.42;99154.64;1675250;84;22271;-89
2021/05/03 00:52:15;;;;;;;13.43;7.78;;;;;;;15.68;74.32;99164.58;1662133;84;21191;-90
2021/05/03 00:54:42;;;;;;;10.55;6.97;;;;;;;15.71;74.18;99160.86;1673348;84;21167;-88
2021/05/03 00:57:09;;;;;;;8.08;7.28;;;;;;;15.74;74.04;99156.34;1684653;84;21310;-88
2021/05/03 00:59:37;;;;;;;8.50;7.70;;;;;;;15.72;73.94;99155.76;1676375;84;21813;-93
2021/05/03 01:02:04;;;;;;;6.78;6.25;;;;;;;15.65;73.97;99152.98;1689467;83;21615;-90
2021/05/03 01:04:32;;;;;;;7.12;6.42;;;;;;;15.58;74.04;99157.22;1669457;84;21217;-89
2021/05/03 01:06:59;;;;;;;6.20;5.62;;;;;;;15.60;73.92;99157.78;1677355;84;21612;-89
2021/05/03 01:09:26;;;;;;;9.88;7.03;;;;;;;15.64;73.60;99154.87;1677920;84;21217;-89
2021/05/03 01:11:54;;;;;;;7.87;6.90;;;;;;;15.65;73.52;99156.50;1671945;84;21250;-91
2021/05/03 01:14:21;;;;;;;7.90;6.90;;;;;;;15.61;73.42;99149.98;1666463;84;21351;-88
2021/05/03 01:16:48;;;;;;;9.38;7.35;;;;;;;15.50;73.46;99152.27;1680018;84;21332;-88
2021/05/03 01:19:19;;;;;;;8.10;7.15;;;;;;;15.43;73.56;99153.00;1677495;84;21187;-90
2021/05/03 01:21:45;;;;;;;9.03;6.12;;;;;;;15.38;73.64;99157.77;1676226;83;21183;-88
2021/05/03 01:24:12;;;;;;;6.75;5.85;;;;;;;15.38;73.41;99165.28;1663339;84;21137;-87
2021/05/03 01:26:41;;;;;;;7.08;6.37;;;;;;;15.38;73.16;99161.79;1674253;84;21192;-88
2021/05/03 01:29:09;;;;;;;6.95;5.67;;;;;;;15.34;73.17;99166.84;1675574;84;21231;-88
2021/05/03 01:31:37;;;;;;;6.85;5.90;;;;;;;15.29;72.68;99168.11;1673171;84;21701;-85
2021/05/03 01:34:07;;;;;;;6.55;5.30;;;;;;;15.22;72.45;99172.86;1676164;84;21098;-88
2021/05/03 01:36:39;;;;;;;6.80;5.92;;;;;;;15.15;71.83;99177.05;1692398;82;21211;-87
2021/05/03 01:39:09;;;;;;;6.25;5.65;;;;;;;15.13;71.53;99174.34;1706819;82;21143;-86
2021/05/03 01:41:37;;;;;;;5.70;4.97;;;;;;;15.10;71.40;99170.80;1703401;82;21187;-88
2021/05/03 01:44:07;;;;;;;6.70;5.53;;;;;;;15.03;71.23;99172.33;1707637;82;21207;-87
2021/05/03 01:46:36;;;;;;;5.70;5.20;;;;;;;14.92;71.13;99170.02;1704018;82;21176;-87
2021/05/03 01:49:07;;;;;;;4.17;3.80;;;;;;;14.80;71.20;99158.55;1706778;82;21211;-88
2021/05/03 01:51:37;;;;;;;4.85;4.17;;;;;;;14.78;71.05;99166.02;1706240;82;21502;-88
2021/05/03 01:54:06;;;;;;;5.03;4.62;;;;;;;14.83;70.39;99171.48;1699608;82;21226;-88
2021/05/03 01:56:35;;;;;;;4.55;4.12;;;;;;;14.83;69.24;99176.04;1693180;83;21203;-85
2021/05/03 01:59:07;;;;;;;3.00;2.80;;;;;;;14.76;68.44;99174.84;1695616;83;21215;-86
2021/05/03 02:01:40;;;;;;;2.92;2.65;;;;;;;14.73;67.68;99173.48;1694648;83;21258;-87
2021/05/03 02:04:09;;;;;;;3.25;2.17;;;;;;;14.70;66.68;99174.49;1703686;83;21191;-87
2021/05/03 02:06:38;;;;;;;1.92;1.82;;;;;;;14.64;65.75;99172.25;1698037;83;21204;-87
2021/05/03 02:09:11;;;;;;;3.58;3.25;;;;;;;14.59;64.28;99173.50;1700716;83;21207;-88
2021/05/03 02:11:40;;;;;;;5.40;1.60;;;;;;;14.54;64.57;99186.28;1708294;80;21092;-86
2021/05/03 02:14:10;;;;;;;2.27;2.05;;;;;;;14.48;64.48;99183.73;1702212;83;21192;-87
2021/05/03 02:16:37;;;;;;;1.40;1.30;;;;;;;14.48;64.28;99180.52;1692849;83;21211;-88
2021/05/03 02:19:05;;;;;;;2.05;1.87;;;;;;;14.54;63.41;99183.59;1699259;83;22167;-88
2021/05/03 02:21:33;;;;;;;2.98;2.27;;;;;;;14.51;63.54;99177.91;1698729;83;21639;-88
2021/05/03 02:24:00;;;;;;;1.50;1.40;;;;;;;14.40;63.59;99195.67;1711895;83;21219;-87
2021/05/03 02:26:27;;;;;;;0.98;0.98;;;;;;;14.32;63.17;99198.76;1698645;83;21240;-87
2021/05/03 02:28:54;;;;;;;0.75;0.75;;;;;;;14.21;60.96;99205.25;1691357;83;21245;-88
2021/05/03 02:31:21;;;;;;;0.88;0.72;;;;;;;14.06;59.89;99204.17;1702908;83;21211;-85
2021/05/03 02:33:48;;;;;;;2.50;0.50;;;;;;;13.95;60.56;99213.86;1704713;83;21650;-87
2021/05/03 02:36:15;;;;;;;1.00;0.60;;;;;;;13.88;59.80;99216.70;1689073;83;21189;-86
2021/05/03 02:38:44;;;;;;;1.82;0.60;;;;;;;13.83;59.36;99215.24;1690799;83;21255;-86
2021/05/03 02:41:11;;;;;;;0.68;0.50;;;;;;;13.79;59.37;99216.23;1696165;83;21146;-86
2021/05/03 02:43:38;;;;;;;0.45;0.45;;;;;;;13.74;59.21;99213.45;1686518;83;21163;-85
2021/05/03 02:46:06;;;;;;;0.80;0.50;;;;;;;13.73;59.20;99223.89;1691268;83;21079;-85
2021/05/03 02:48:33;;;;;;;0.78;0.37;;;;;;;13.71;59.17;99228.67;1694121;83;21199;-85
2021/05/03 02:51:00;;;;;;;1.45;0.50;;;;;;;13.69;59.05;99232.08;1694120;83;21155;-84
2021/05/03 02:53:27;;;;;;;0.60;0.40;;;;;;;13.73;58.39;99233.77;1688203;83;21739;-86
2021/05/03 02:55:56;;;;;;;5.87;0.40;;;;;;;13.85;57.90;99235.10;1656735;85;21177;-86
2021/05/03 02:58:23;;;;;;;3.72;0.45;;;;;;;13.93;55.56;99224.81;1623149;87;21779;-85
2021/05/03 03:00:51;;;;;;;0.90;0.30;;;;;;;13.87;55.29;99208.89;1648677;84;21103;-87
2021/05/03 03:03:18;;;;;;;0.13;0.13;;;;;;;14.29;54.52;99240.77;1650877;85;21695;-89
2021/05/03 03:05:46;;;;;;;0.78;0.40;;;;;;;14.59;53.82;99257.44;1650977;85;21174;-88
2021/05/03 03:08:15;;;;;;;1.95;0.30;;;;;;;14.93;52.74;99260.16;1646255;85;21219;-85
2021/05/03 03:10:42;;;;;;;2.37;0.30;;;;;;;15.04;52.24;99263.03;1621504;87;21375;-88
2021/05/03 03:13:09;;;;;;;2.40;0.30;;;;;;;15.12;52.57;99274.69;1627529;85;21104;-86
2021/05/03 03:15:36;;;;;;;2.22;0.20;;;;;;;15.14;51.97;99276.09;1663598;84;21206;-87
2021/05/03 03:18:06;;;;;;;3.65;0.60;;;;;;;14.97;51.54;99275.25;1669796;84;21605;-86
2021/05/03 03:20:34;;;;;;;0.68;0.40;;;;;;;14.83;52.50;99279.32;1678277;84;21144;-88
2021/05/03 03:23:03;;;;;;;1.70;0.30;;;;;;;15.01;52.41;99291.68;1624970;87;21264;-89
2021/05/03 03:25:31;;;;;;;2.75;0.30;;;;;;;15.42;51.13;99289.11;1651294;85;21206;-90
2021/05/03 03:27:58;;;;;;;1.62;0.40;;;;;;;15.87;50.13;99308.31;1636979;86;21195;-89
2021/05/03 03:30:25;;;;;;;0.23;0.20;;;;;;;16.16;48.73;99305.45;1658462;86;21622;-88
2021/05/03 03:32:52;;;;;;;1.42;0.50;;;;;;;16.33;48.54;99306.73;1662673;84;21350;-87
2021/05/03 03:35:21;;;;;;;0.70;0.33;;;;;;;16.62;47.47;99307.87;1663245;84;21097;-87
2021/05/03 03:37:50;;;;;;;3.98;0.50;;;;;;;16.84;46.79;99312.70;1664632;84;21171;-83
2021/05/03 03:40:19;;;;;;;1.60;0.33;;;;;;;17.02;45.97;99309.35;1619808;87;21231;-87
2021/05/03 03:42:47;;;;;;;2.02;0.40;;;;;;;17.11;44.80;99317.24;1663567;84;21192;-87
2021/05/03 03:45:15;;;;;;;1.15;0.30;;;;;;;16.93;44.31;99322.45;1670009;84;21499;-84
2021/05/03 03:47:43;;;;;;;0.70;0.45;;;;;;;16.75;44.45;99320.92;1668415;84;21198;-84
2021/05/03 03:50:11;;;;;;;0.75;0.33;;;;;;;16.66;44.17;99334.55;1672021;84;21227;-84
2021/05/03 03:52:40;;;;;;;1.90;0.40;;;;;;;16.55;43.31;99339.80;1680902;84;21159;-84
2021/05/03 03:55:09;;;;;;;0.93;0.30;;;;;;;16.45;43.77;99349.65;1665016;82;21221;-86
2021/05/03 03:57:36;;;;;;;0.68;0.40;;;;;;;16.42;44.18;99346.91;1665959;84;21349;-85
2021/05/03 04:00:05;;;;;;;2.47;0.47;;;;;;;16.54;44.01;99357.02;1655502;84;21697;-84
2021/05/03 04:02:34;;;;;;;0.47;0.20;;;;;;;16.81;43.70;99360.27;1677855;84;21215;-87
2021/05/03 04:07:37;;;;;;;0.72;0.30;;;;;;;16.35;42.27;99264.29;1673713;84;21186;-85
2021/05/03 04:13:14;;;;;;;0.30;0.20;;;;;;;17.37;41.94;99370.79;1790050;77;22984;-85
2021/05/03 04:24:04;;;;;;;0.20;0.20;;;;;;;17.95;40.21;99411.92;1676196;84;21113;-83
2021/05/03 04:26:26;;;;;;;0.72;0.20;;;;;;;17.82;40.09;99419.89;1695138;83;21620;-85
2021/05/03 04:28:55;;;;;;;0.68;0.28;;;;;;;17.61;40.28;99426.48;1676520;84;21384;-84
2021/05/03 04:31:23;;;;;;;0.25;0.13;;;;;;;17.38;40.69;99415.49;1676051;84;21204;-85
2021/05/03 04:33:52;;;;;;;0.20;0.20;;;;;;;17.34;40.77;99408.19;1679188;84;21264;-85
2021/05/03 04:36:20;;;;;;;0.40;0.20;;;;;;;17.59;40.96;99398.96;1676728;84;21636;-84
2021/05/03 04:38:47;;;;;;;4.35;0.20;;;;;;;18.03;39.64;99412.27;1681161;84;21333;-85
2021/05/03 04:41:17;;;;;;;0.80;0.20;;;;;;;18.33;38.43;99416.21;1676722;84;21666;-85
2021/05/03 04:43:44;;;;;;;0.23;0.20;;;;;;;18.18;38.70;99398.60;1676131;85;21997;-85
2021/05/03 04:46:10;;;;;;;2.12;0.10;;;;;;;17.95;39.08;99418.15;1651450;85;21271;-83
2021/05/03 04:48:38;;;;;;;1.32;0.20;;;;;;;18.19;39.48;99426.63;1648536;86;21216;-83
2021/05/03 04:51:05;;;;;;;0.70;0.10;;;;;;;18.62;37.78;99436.03;1650429;86;21144;-82
2021/05/03 04:53:33;;;;;;;0.20;0.10;;;;;;;18.61;37.52;99411.46;1653761;85;21185;-92
2021/05/03 04:56:03;;;;;;;0.20;0.10;;;;;;;18.64;38.25;99404.20;1649197;85;21559;-89
2021/05/03 04:58:31;;;;;;;1.47;0.17;;;;;;;18.86;37.22;99418.34;1650141;86;21203;-87
2021/05/03 05:00:58;;;;;;;1.80;0.10;;;;;;;18.75;36.97;99423.95;1656784;85;21214;-87
2021/05/03 05:03:25;;;;;;;8.08;0.28;;;;;;;18.38;37.54;99427.01;1656613;85;21374;-88
2021/05/03 05:05:52;;;;;;;0.20;0.10;;;;;;;18.18;37.94;99422.88;1652286;85;21251;-91
2021/05/03 05:08:22;;;;;;;0.15;0.10;;;;;;;18.29;38.02;99428.06;1673359;84;21228;-88
2021/05/03 05:10:51;;;;;;;0.62;0.10;;;;;;;18.38;37.18;99428.36;1663829;85;21203;-90
2021/05/03 05:13:18;;;;;;;1.60;0.33;;;;;;;18.09;37.78;99432.78;1629986;86;21264;-91
2021/05/03 05:15:47;;;;;;;0.10;0.05;;;;;;;17.92;38.04;99425.40;1653286;85;21220;-92
2021/05/03 05:18:15;;;;;;;0.15;0.10;;;;;;;17.60;38.18;99418.66;1651593;85;21208;-94
2021/05/03 05:20:43;;;;;;;1.17;0.08;;;;;;;17.54;38.70;99427.74;1633063;86;21184;-95
2021/05/03 05:23:11;;;;;;;0.28;0.10;;;;;;;17.57;38.21;99421.85;1632634;85;21167;-90
2021/05/03 05:25:39;;;;;;;0.10;0.05;;;;;;;17.47;39.31;99438.75;1641700;86;21217;-90
2021/05/03 05:28:07;;;;;;;1.67;0.10;;;;;;;17.65;38.88;99439.72;1631105;86;21188;-88
2021/05/03 05:30:39;;;;;;;0.40;0.20;;;;;;;17.83;38.29;99427.72;1621800;87;21243;-85
2021/05/03 05:33:09;;;;;;;0.50;0.10;;;;;;;17.92;37.70;99420.00;1644556;84;21194;-80
2021/05/03 05:35:36;;;;;;;1.52;0.10;;;;;;;18.04;37.85;99426.55;1622352;87;21260;-87
2021/05/03 05:38:03;;;;;;;0.13;0.10;;;;;;;18.17;37.52;99416.65;1633882;86;21179;-86
2021/05/03 05:40:30;;;;;;;0.45;0.10;;;;;;;18.12;36.94;99422.55;1621036;87;21355;-85
2021/05/03 05:42:58;;;;;;;0.20;0.00;;;;;;;18.05;37.46;99428.98;1604984;88;21647;-90
2021/05/03 05:45:27;;;;;;;1.00;0.10;;;;;;;17.83;37.54;99432.30;1628659;86;21218;-79
2021/05/03 05:47:54;;;;;;;0.50;0.10;;;;;;;17.63;38.16;99427.05;1662259;85;21177;-90
2021/05/03 05:50:22;;;;;;;0.72;0.10;;;;;;;17.69;37.89;99419.27;1652184;85;21208;-91
2021/05/03 05:52:49;;;;;;;0.03;0.00;;;;;;;17.77;37.74;99419.88;1655311;86;21152;-85
2021/05/03 05:55:17;;;;;;;2.12;0.17;;;;;;;17.92;37.63;99425.40;1656847;85;21216;-86
2021/05/03 05:57:43;;;;;;;2.95;0.42;;;;;;;17.94;39.04;99430.53;1645266;85;21216;-85
2021/05/03 06:00:13;;;;;;;0.30;0.10;;;;;;;17.87;37.27;99438.28;1647017;85;21200;-86
2021/05/03 06:02:46;;;;;;;0.23;0.10;;;;;;;17.54;38.50;99442.05;1650788;85;21193;-80
2021/05/03 06:05:15;;;;;;;0.65;0.10;;;;;;;17.44;38.34;99448.17;1628482;85;21200;-80
2021/05/03 06:07:43;;;;;;;0.10;0.00;;;;;;;17.49;38.33;99458.16;1650890;85;21258;-79
2021/05/03 06:10:12;;;;;;;0.10;0.10;;;;;;;17.43;39.07;99474.00;1650315;85;22165;-81
2021/05/03 06:12:39;;;;;;;0.10;0.00;;;;;;;17.45;38.19;99475.91;1657855;85;21085;-80
2021/05/03 06:15:07;;;;;;;0.10;0.10;;;;;;;17.44;38.17;99468.37;1658530;86;21398;-80
2021/05/03 06:17:34;;;;;;;0.10;0.10;;;;;;;17.42;38.74;99454.86;1669901;84;21196;-83
2021/05/03 06:20:05;;;;;;;0.70;0.10;;;;;;;17.41;38.62;99451.90;1673363;84;21188;-86
2021/05/03 06:22:35;;;;;;;0.20;0.20;;;;;;;17.48;38.70;99453.86;1671334;84;21586;-87
2021/05/03 06:25:04;;;;;;;1.02;0.10;;;;;;;17.61;37.80;99468.26;1673132;84;21358;-87
2021/05/03 06:27:31;;;;;;;1.00;0.00;;;;;;;17.45;38.39;99467.83;1664845;84;21249;-80
2021/05/03 06:29:58;;;;;;;0.03;0.03;;;;;;;17.40;38.49;99482.05;1674842;84;21207;-81
2021/05/03 06:32:26;;;;;;;3.50;0.00;;;;;;;17.55;38.34;99480.03;1673107;84;21390;-91
2021/05/03 06:34:55;;;;;;;0.20;0.10;;;;;;;17.71;37.61;99487.20;1664565;85;21138;-86
2021/05/03 06:37:22;;;;;;;0.40;0.10;;;;;;;17.75;38.20;99492.89;1660646;86;21389;-84
2021/05/03 06:39:48;;;;;;;1.25;0.10;;;;;;;17.98;37.18;99495.80;1657292;86;21168;-84
2021/05/03 06:42:15;;;;;;;0.28;0.10;;;;;;;18.09;37.21;99489.95;1652600;86;21626;-84
2021/05/03 06:44:44;;;;;;;1.17;0.10;;;;;;;18.12;36.76;99488.62;1651066;85;21136;-81
2021/05/03 06:47:14;;;;;;;1.95;0.10;;;;;;;18.18;36.14;99492.45;1640084;86;21667;-79
2021/05/03 06:49:42;;;;;;;0.37;0.00;;;;;;;17.93;35.75;99490.91;1629796;86;22195;-79
2021/05/03 06:52:09;;;;;;;0.80;0.00;;;;;;;17.43;36.89;99485.59;1630483;86;21223;-82
2021/05/03 06:54:37;;;;;;;1.20;0.23;;;;;;;17.12;37.33;99499.25;1632342;87;21171;-83
2021/05/03 06:57:05;;;;;;;0.10;0.10;;;;;;;16.77;37.89;99503.12;1682606;85;21720;-84
2021/05/03 06:59:32;;;;;;;1.95;0.00;;;;;;;16.64;38.37;99491.37;1690875;85;21205;-84
2021/05/03 07:01:59;;;;;;;0.30;0.10;;;;;;;16.53;38.91;99495.25;1656922;85;21263;-83
2021/05/03 07:04:25;;;;;;;1.05;0.00;;;;;;;16.57;39.12;99523.83;1658000;85;21209;-84
2021/05/03 07:06:52;;;;;;;2.62;0.08;;;;;;;16.59;39.02;99524.39;1656260;85;21228;-77
2021/05/03 07:09:20;;;;;;;0.60;0.00;;;;;;;16.62;38.06;99526.59;1677460;85;21165;-82
2021/05/03 07:11:47;;;;;;;0.82;0.10;;;;;;;16.46;38.57;99528.27;1674029;84;21114;-81
2021/05/03 07:14:14;;;;;;;0.10;0.00;;;;;;;16.23;38.80;99532.47;1653501;85;21181;-82
2021/05/03 07:16:41;;;;;;;0.10;0.00;;;;;;;15.96;39.19;99527.75;1655840;85;21672;-82
2021/05/03 07:19:08;;;;;;;0.65;0.08;;;;;;;15.84;39.53;99535.89;1680421;83;21212;-82
2021/05/03 07:21:39;;;;;;;0.68;0.10;;;;;;;15.84;39.95;99526.48;1676518;84;21350;-82
2021/05/03 07:24:10;;;;;;;0.10;0.10;;;;;;;15.90;39.87;99527.38;1667262;85;21288;-78
2021/05/03 07:26:37;;;;;;;0.20;0.20;;;;;;;15.89;39.79;99514.99;1660684;85;21255;-83
2021/05/03 07:29:04;;;;;;;1.30;0.00;;;;;;;15.58;40.06;99526.53;1659978;85;21695;-82
2021/05/03 07:31:32;;;;;;;0.23;0.00;;;;;;;15.58;40.06;99526.53;1662552;85;21213;-84
2021/05/03 07:33:59;;;;;;;0.13;0.08;;;;;;;15.38;40.58;99537.16;1664949;84;21081;-82
2021/05/03 07:36:26;;;;;;;1.00;0.10;;;;;;;15.18;41.66;99540.28;1683714;84;21208;-80
2021/05/03 07:38:55;;;;;;;0.30;0.10;;;;;;;15.11;41.49;99539.59;1679533;84;21184;-81
2021/05/03 07:41:22;;;;;;;0.10;0.10;;;;;;;15.10;41.83;99533.92;1670781;84;22248;-81
2021/05/03 07:43:49;;;;;;;1.27;0.10;;;;;;;15.16;42.13;99526.79;1675669;84;21346;-82
2021/05/03 07:46:24;;;;;;;0.47;0.00;;;;;;;15.23;40.96;99555.66;1677988;84;21256;-85
2021/05/03 07:48:44;;;;;;;0.30;0.10;;;;;;;15.26;41.02;99547.67;1667697;84;21492;-83
2021/05/03 07:51:12;;;;;;;0.20;0.08;;;;;;;15.21;41.78;99558.30;1675713;84;21212;-81
2021/05/03 07:53:39;;;;;;;2.08;0.10;;;;;;;15.25;41.32;99556.77;1635580;87;21263;-82
2021/05/03 07:56:06;;;;;;;1.77;0.00;;;;;;;15.18;41.92;99550.18;1636711;87;21163;-83
2021/05/03 07:58:33;;;;;;;3.75;0.55;;;;;;;15.19;41.34;99544.58;1680978;84;21198;-83
2021/05/03 08:01:00;;;;;;;0.10;0.10;;;;;;;15.25;41.27;99543.34;1674305;84;21118;-81
2021/05/03 08:03:30;;;;;;;2.90;0.03;;;;;;;15.28;41.39;99545.03;1689855;84;21198;-83
2021/05/03 08:05:57;;;;;;;0.20;0.10;;;;;;;15.18;41.73;99548.34;1682678;84;21202;-80
2021/05/03 08:08:24;;;;;;;5.15;0.10;;;;;;;15.08;41.34;99544.08;1681866;84;21358;-84
2021/05/03 08:10:51;;;;;;;1.90;0.00;;;;;;;14.93;41.49;99549.95;1689595;84;21702;-83
2021/05/03 08:13:18;;;;;;;3.17;0.10;;;;;;;14.71;41.81;99556.47;1659272;83;21138;-83
2021/05/03 08:15:47;;;;;;;0.20;0.10;;;;;;;14.49;42.52;99567.46;1654125;85;21223;-84
2021/05/03 08:18:14;;;;;;;0.50;0.10;;;;;;;14.41;43.22;99575.33;1655900;85;22189;-83
2021/05/03 08:20:41;;;;;;;0.33;0.10;;;;;;;14.43;43.43;99569.20;1657778;85;21212;-83
2021/05/03 08:23:13;;;;;;;0.40;0.20;;;;;;;14.47;43.25;99577.61;1655333;85;21546;-84
2021/05/03 08:25:39;;;;;;;0.40;0.10;;;;;;;14.50;43.53;99579.27;1636561;85;21278;-82
2021/05/03 08:28:08;;;;;;;1.82;0.10;;;;;;;14.64;43.98;99573.20;1636587;86;21603;-84
2021/05/03 08:30:35;;;;;;;0.10;0.10;;;;;;;14.77;43.54;99593.08;1647637;85;21751;-84
2021/05/03 08:33:02;;;;;;;1.55;0.10;;;;;;;14.75;42.87;99599.74;1643492;86;21179;-82
2021/05/03 08:35:29;;;;;;;0.30;0.00;;;;;;;14.55;43.40;99605.41;1641508;86;21624;-81
2021/05/03 08:37:56;;;;;;;0.82;0.20;;;;;;;14.42;43.62;99605.09;1644043;85;21188;-84
2021/05/03 08:40:24;;;;;;;0.72;0.10;;;;;;;14.28;44.12;99597.80;1639840;85;21316;-84
2021/05/03 08:42:51;;;;;;;0.35;0.10;;;;;;;14.19;44.28;99593.30;1637163;85;21335;-82
2021/05/03 08:45:19;;;;;;;0.20;0.20;;;;;;;14.01;44.68;99602.73;1660459;85;21583;-83
2021/05/03 08:56:01;;;;;;;0.93;0.20;;;;;;;13.78;45.57;99599.47;1788620;78;22916;-81
2021/05/03 08:58:28;;;;;;;0.82;0.10;;;;;;;13.70;45.34;99603.28;1763185;80;21193;-82
2021/05/03 09:00:55;;;;;;;0.47;0.20;;;;;;;13.70;45.53;99609.17;1756302;80;21121;-83
2021/05/03 09:03:23;;;;;;;2.47;0.20;;;;;;;13.71;45.55;99626.36;1760642;80;21184;-83
2021/05/03 09:05:51;;;;;;;2.62;0.20;;;;;;;13.67;45.77;99625.14;1769126;80;21196;-84
2021/05/03 09:10:55;;;;;;;1.65;0.10;;;;;;;13.74;45.79;99610.34;1800463;79;22931;-81
2021/05/03 09:13:36;;;;;;;0.30;0.10;;;;;;;13.62;45.11;99608.96;1733310;81;21622;-82
2021/05/03 09:16:22;;;;;;;0.72;0.10;;;;;;;13.58;45.54;99605.92;1701187;81;21605;-82
2021/05/03 09:18:51;;;;;;;0.23;0.13;;;;;;;13.67;45.31;99602.91;1724972;81;21667;-84
2021/05/03 09:21:32;;;;;;;1.98;0.20;;;;;;;13.77;45.07;99613.39;1730039;81;21183;-85
2021/05/03 09:24:09;;;;;;;1.00;0.40;;;;;;;13.83;44.67;99611.66;1711743;81;21723;-84
2021/05/03 09:26:46;;;;;;;0.45;0.20;;;;;;;13.87;44.25;99617.39;1704939;81;21201;-82
2021/05/03 09:29:46;;;;;;;0.72;0.20;;;;;;;13.91;43.99;99614.01;1668842;84;21713;-83
2021/05/03 09:32:21;;;;;;;1.55;0.20;;;;;;;13.81;44.06;99614.56;1666591;84;21239;-83
2021/05/03 09:34:53;;;;;;;;;;;;;;;13.73;44.21;99613.55;1708311;83;21097;-85
2021/05/03 09:37:31;;;;;;;2.47;0.65;;;;;;;13.63;44.03;99605.23;1694750;83;20551;-84
2021/05/03 09:40:07;;;;;;;2.17;0.35;;;;;;;13.55;44.42;99601.00;1694679;83;21196;-82
2021/05/03 09:42:56;;;;;;;0.60;0.10;;;;;;;13.55;44.47;99598.86;1657757;84;21741;-81
2021/05/03 09:45:29;;;;;;;3.55;0.20;;;;;;;13.59;44.28;99597.36;1659040;84;21210;-84
2021/05/03 09:47:58;;;;;;;0.20;0.20;;;;;;;13.60;44.19;99609.19;1694848;83;21970;-83
2021/05/03 09:50:33;;;;;;;0.65;0.30;;;;;;;13.68;44.33;99617.95;1669889;84;21181;-85
2021/05/03 09:53:13;;;;;;;3.37;1.00;;;;;;;13.73;43.78;99618.91;1625725;84;21267;-83
2021/05/03 09:55:52;;;;;;;1.10;0.20;;;;;;;13.69;43.28;99614.22;1649926;84;21285;-82
2021/05/03 09:58:22;;;;;;;1.15;0.30;;;;;;;13.62;43.83;99629.05;1642769;86;21205;-82
2021/05/03 10:00:55;;;;;;;0.20;0.10;;;;;;;13.69;43.64;99620.91;1644523;84;21506;-83
2021/05/03 10:03:46;;;;;;;7.30;0.30;;;;;;;13.81;43.52;99633.31;1640106;86;21243;-85
2021/05/03 10:06:26;;;;;;;0.30;0.20;;;;;;;13.85;43.53;99631.00;1643808;86;21179;-83
2021/05/03 10:08:58;;;;;;;0.30;0.17;;;;;;;13.83;44.19;99626.39;1639430;86;21255;-82
2021/05/03 10:11:29;;;;;;;0.35;0.10;;;;;;;13.81;44.04;99627.95;1638644;85;21120;-82
2021/05/03 10:13:54;;;;;;;0.35;0.20;;;;;;;13.75;43.35;99642.77;1662339;84;21163;-83
2021/05/03 10:16:21;;;;;;;2.47;0.10;;;;;;;13.71;44.28;99643.77;1667910;84;21333;-83
2021/05/03 10:18:49;;;;;;;0.40;0.15;;;;;;;13.79;44.37;99643.97;1677145;84;21226;-83
2021/05/03 10:21:16;;;;;;;0.90;0.10;;;;;;;13.90;43.51;99643.70;1669225;84;21164;-83
2021/05/03 10:23:45;;;;;;;3.45;0.30;;;;;;;14.01;43.24;99626.35;1668154;83;21664;-84
2021/05/03 10:26:13;;;;;;;0.20;0.20;;;;;;;14.10;42.75;99651.47;1653698;84;21558;-86
2021/05/03 10:28:55;;;;;;;0.33;0.20;;;;;;;14.02;43.14;99653.42;1634235;86;21214;-83
2021/05/03 10:31:24;;;;;;;0.47;0.13;;;;;;;14.00;43.30;99657.39;1635531;86;21218;-85
2021/05/03 10:33:52;;;;;;;2.92;0.50;;;;;;;14.00;43.13;99658.73;1654459;84;21084;-83
2021/05/03 10:36:37;;;;;;;1.37;0.40;;;;;;;13.97;43.36;99649.79;1654903;85;21354;-83
2021/05/03 10:39:28;;;;;;;0.40;0.20;;;;;;;13.94;43.15;99652.95;1675154;84;21713;-81
2021/05/03 10:42:06;;;;;;;0.55;0.20;;;;;;;13.84;43.01;99656.14;1655455;85;21206;-84
2021/05/03 10:44:37;;;;;;;0.35;0.20;;;;;;;13.76;43.50;99647.90;1649893;84;22257;-83
2021/05/03 10:47:34;;;;;;;1.22;0.40;;;;;;;13.80;43.08;99650.41;1678713;85;21697;-83
2021/05/03 10:49:58;;;;;;;0.93;0.10;;;;;;;13.83;43.16;99649.97;1672828;85;21165;-83
2021/05/03 10:52:37;;;;;;;3.40;0.40;;;;;;;13.79;42.66;99656.02;1661726;85;21219;-82
2021/05/03 10:55:05;;;;;;;1.20;0.13;;;;;;;13.75;42.62;99647.62;1658743;85;21744;-83
2021/05/03 10:57:35;;;;;;;1.12;0.25;;;;;;;13.66;42.35;99663.70;1643827;85;21187;-84
2021/05/03 11:00:08;;;;;;;0.20;0.10;;;;;;;13.57;42.66;99656.48;1647846;85;21148;-81
2021/05/03 11:02:44;;;;;;;1.27;0.23;;;;;;;13.57;43.04;99675.75;1654665;85;21651;-85
2021/05/03 11:05:29;;;;;;;4.45;0.75;;;;;;;13.48;42.79;99675.75;1666881;84;21341;-81
2021/05/03 11:08:09;;;;;;;2.40;0.55;;;;;;;13.38;43.12;99677.62;1661850;84;21306;-83
2021/05/03 11:11:04;;;;;;;0.20;0.20;;;;;;;13.37;42.86;99683.50;1651135;84;21239;-84
2021/05/03 11:13:46;;;;;;;0.17;0.17;;;;;;;13.36;43.37;99685.86;1648976;84;21226;-83
2021/05/03 11:20:08;;;;;;;0.45;0.30;;;;;;;13.58;43.54;99687.59;1781423;78;23048;-83
2021/05/03 11:23:03;;;;;;;0.30;0.10;;;;;;;13.63;43.51;99689.58;1772654;80;21113;-84
2021/05/03 11:25:29;;;;;;;0.20;0.20;;;;;;;13.70;43.25;99684.97;1722261;81;21219;-86
2021/05/03 11:28:16;;;;;;;2.35;0.20;;;;;;;13.76;42.52;99675.21;1700285;81;21185;-85
2021/05/03 11:30:54;;;;;;;0.93;0.20;;;;;;;13.77;42.44;99668.83;1702998;81;21222;-84
2021/05/03 11:33:22;;;;;;;1.20;0.20;;;;;;;13.69;41.84;99674.47;1713576;80;21657;-85
2021/05/03 11:46:33;;;;;;;0.35;0.20;;;;;;;13.41;42.54;99655.23;1690700;82;21155;-82
2021/05/03 11:49:14;;;;;;;2.00;0.30;;;;;;;13.50;42.54;99668.31;1711087;82;21192;-83
2021/05/03 11:51:59;;;;;;;0.88;0.30;;;;;;;13.50;42.75;99656.27;1720296;81;21219;-83
2021/05/03 11:54:31;;;;;;;1.72;0.20;;;;;;;13.54;42.79;99665.48;1699598;81;21367;-82
2021/05/03 11:57:07;;;;;;;0.17;0.10;;;;;;;13.57;42.49;99668.53;1704460;82;23192;-84
2021/05/03 11:59:36;;;;;;;0.33;0.20;;;;;;;13.56;42.29;99667.41;1706122;82;21215;-84
2021/05/03 12:02:12;;;;;;;0.78;0.25;;;;;;;13.53;42.37;99671.89;1727254;81;21071;-84
2021/05/03 12:04:46;;;;;;;2.87;0.30;;;;;;;13.52;42.81;99667.03;1744067;81;21139;-82
2021/05/03 12:07:28;;;;;;;1.17;0.30;;;;;;;13.58;43.04;99668.84;1722470;81;21237;-83
2021/05/03 12:10:14;;;;;;;0.40;0.40;;;;;;;13.66;42.00;99667.72;1736525;81;21223;-83
2021/05/03 12:12:54;;;;;;;3.95;0.50;;;;;;;13.63;42.36;99669.49;1702868;81;21816;-83
2021/05/03 12:15:27;;;;;;;2.52;0.53;;;;;;;13.58;42.62;99668.00;1666508;85;21180;-82
2021/05/03 12:18:05;;;;;;;0.65;0.30;;;;;;;13.56;42.23;99666.91;1658927;85;21365;-82
2021/05/03 12:20:35;;;;;;;4.12;0.35;;;;;;;13.55;42.44;99665.79;1668156;84;21223;-82
2021/05/03 12:23:10;;;;;;;1.25;0.35;;;;;;;13.53;42.33;99665.20;1661728;85;21163;-83
2021/05/03 12:25:54;;;;;;;0.30;0.30;;;;;;;13.49;42.13;99647.42;1647956;84;21255;-82